Time;durP1;ratioP1;P1;durP2;ratioP2;P2;SDS_P1;SDS_P2;PMS_P1;PMS_P2;Temp;Humidity;BMP_temperature;BMP_pressure;BME280_temperature;BME280_humidity;BME280_pressure;Samples;Min_cycle;Max_cycle;Signal;HPM_P1;HPM_P2
2023/09/13 00:00:38;;;;;;;13.68;5.95;;;;;;;;;;5001112;28;20424;-81
2023/09/13 00:03:04;;;;;;;14.00;6.45;;;;;;;;;;4997912;28;20030;-81
2023/09/13 00:05:30;;;;;;;14.60;6.03;;;;;;;;;;4999201;28;20040;-81
2023/09/13 00:07:56;;;;;;;13.13;5.45;;;;;;;;;;5007842;28;20026;-82
2023/09/13 00:10:22;;;;;;;14.98;5.82;;;;;;;;;;5007395;28;20042;-82
2023/09/13 00:12:48;;;;;;;15.20;6.20;;;;;;;;;;5002453;28;20022;-81
2023/09/13 00:15:13;;;;;;;14.73;5.35;;;16.90;99.90;;;;;;4997779;28;20044;-81
2023/09/13 00:17:39;;;;;;;9.93;5.45;;;;;;;;;;5003100;28;20084;-81
2023/09/13 00:20:07;;;;;;;8.63;5.28;;;;;;;;;;4996558;28;20045;-82
2023/09/13 00:22:33;;;;;;;10.38;5.05;;;;;;;;;;4999890;28;20030;-81
2023/09/13 00:24:59;;;;;;;11.27;5.55;;;;;;;;;;5002958;28;20030;-82
2023/09/13 00:27:25;;;;;;;7.85;4.75;;;;;;;;;;5003341;28;20050;-81
2023/09/13 00:29:51;;;;;;;11.98;5.30;;;;;;;;;;4990111;28;20069;-82
2023/09/13 00:32:17;;;;;;;9.70;5.20;;;16.90;99.90;;;;;;5003092;28;20022;-82
2023/09/13 00:34:43;;;;;;;15.60;5.13;;;;;;;;;;4991902;28;20042;-81
2023/09/13 00:37:09;;;;;;;8.80;5.30;;;;;;;;;;4996436;28;20045;-83
2023/09/13 00:39:35;;;;;;;13.50;4.70;;;;;;;;;;4992017;28;20038;-81
2023/09/13 00:42:01;;;;;;;9.15;5.10;;;;;;;;;;4995427;28;20034;-81
2023/09/13 00:44:27;;;;;;;10.20;5.53;;;;;;;;;;5001621;28;20038;-82
2023/09/13 00:46:53;;;;;;;9.32;4.88;;;17.50;99.90;;;;;;4996061;28;20064;-82
2023/09/13 00:49:19;;;;;;;11.20;5.47;;;;;;;;;;5000499;28;20157;-81
2023/09/13 00:51:45;;;;;;;14.30;5.93;;;;;;;;;;4986047;28;20080;-82
2023/09/13 00:54:11;;;;;;;11.60;5.35;;;;;;;;;;4997019;28;20030;-81
2023/09/13 00:56:39;;;;;;;10.23;5.53;;;;;;;;;;5000960;28;20036;-82
2023/09/13 00:59:08;;;;;;;10.40;5.43;;;;;;;;;;4998383;28;20041;-81
2023/09/13 01:01:34;;;;;;;15.60;6.25;;;17.50;99.90;;;;;;4996777;28;20040;-82
2023/09/13 01:04:00;;;;;;;8.10;4.82;;;;;;;;;;4992819;28;20022;-83
2023/09/13 01:06:27;;;;;;;10.15;5.20;;;;;;;;;;4990235;28;20545;-81
2023/09/13 01:08:53;;;;;;;13.40;5.30;;;;;;;;;;4992761;28;20034;-82
2023/09/13 01:11:19;;;;;;;10.15;4.93;;;;;;;;;;5005479;28;20026;-81
2023/09/13 01:13:45;;;;;;;9.88;4.60;;;;;;;;;;4998886;28;20026;-81
2023/09/13 01:16:14;;;;;;;8.05;4.63;;;;;;;;;;5004173;28;20041;-81
2023/09/13 01:18:51;;;;;;;8.98;4.47;;;18.10;99.90;;;;;;4999959;28;20104;-82
2023/09/13 01:21:36;;;;;;;7.78;4.18;;;17.50;99.90;;;;;;5005092;28;20021;-81
2023/09/13 01:24:46;;;;;;;9.77;4.07;;;18.40;99.90;;;;;;5003868;28;20053;-82
2023/09/13 01:27:41;;;;;;;7.20;4.28;;;16.90;99.90;;;;;;5000018;28;20030;-81
2023/09/13 01:30:08;;;;;;;6.45;3.88;;;17.90;99.90;;;;;;5005204;28;20033;-82
2023/09/13 01:32:35;;;;;;;13.30;4.15;;;;;;;;;;5003007;28;20049;-81
2023/09/13 01:35:01;;;;;;;7.63;4.32;;;;;;;;;;5004249;28;20555;-81
2023/09/13 01:37:27;;;;;;;11.85;4.10;;;;;;;;;;4997949;28;20029;-82
2023/09/13 01:39:52;;;;;;;8.15;3.63;;;18.90;99.90;;;;;;4993925;28;20077;-82
2023/09/13 01:42:18;;;;;;;7.05;4.00;;;;;;;;;;4994929;28;20034;-82
2023/09/13 01:44:45;;;;;;;5.35;3.20;;;;;;;;;;4999200;28;20160;-82
2023/09/13 01:47:13;;;;;;;8.00;3.50;;;18.70;99.90;;;;;;4998164;28;20023;-81
2023/09/13 01:49:42;;;;;;;7.43;3.30;;;18.40;99.90;;;;;;4999894;28;20057;-83
2023/09/13 01:52:08;;;;;;;6.93;3.17;;;;;;;;;;4993192;28;20323;-81
2023/09/13 01:54:34;;;;;;;8.60;3.92;;;;;;;;;;4993403;28;20680;-82
2023/09/13 01:57:00;;;;;;;6.28;3.20;;;;;;;;;;5000881;28;20018;-83
2023/09/13 01:59:26;;;;;;;6.05;3.03;;;;;;;;;;5018232;28;20042;-81
2023/09/13 02:01:52;;;;;;;6.55;3.08;;;;;;;;;;5020097;28;20033;-80
2023/09/13 02:04:18;;;;;;;6.38;3.17;;;;;;;;;;5012476;28;20123;-82
2023/09/13 02:06:44;;;;;;;12.65;3.92;;;;;;;;;;5006933;28;20145;-83
2023/09/13 02:09:11;;;;;;;7.88;3.30;;;;;;;;;;5007779;28;20044;-82
2023/09/13 02:11:37;;;;;;;3.92;2.80;;;;;;;;;;5013687;28;20084;-82
2023/09/13 02:14:03;;;;;;;6.32;3.47;;;;;;;;;;5007979;28;20033;-82
2023/09/13 02:16:29;;;;;;;5.40;2.65;;;;;;;;;;5006608;28;20030;-82
2023/09/13 02:18:55;;;;;;;5.95;2.92;;;;;;;;;;5007573;28;20029;-81
2023/09/13 02:21:21;;;;;;;5.03;2.92;;;;;;;;;;5008418;28;20037;-81
2023/09/13 02:23:47;;;;;;;7.60;3.10;;;;;;;;;;5011651;28;20030;-82
2023/09/13 02:26:23;;;;;;;6.97;3.78;;;18.20;99.90;;;;;;5012096;28;20026;-84
2023/09/13 02:28:49;;;;;;;6.13;3.50;;;;;;;;;;5005191;28;20037;-83
2023/09/13 02:31:26;;;;;;;6.25;3.67;;;18.30;99.90;;;;;;5007772;28;20101;-81
2023/09/13 02:33:52;;;;;;;5.35;3.50;;;;;;;;;;5002192;28;20032;-81
2023/09/13 02:36:18;;;;;;;6.53;3.10;;;;;;;;;;5001341;28;20101;-81
2023/09/13 02:38:44;;;;;;;5.97;3.42;;;;;;;;;;4994804;28;20026;-81
2023/09/13 02:41:10;;;;;;;7.57;3.95;;;;;;;;;;4992218;28;20026;-81
2023/09/13 02:43:36;;;;;;;5.72;2.95;;;;;;;;;;4998574;28;20042;-81
2023/09/13 02:46:02;;;;;;;8.23;3.28;;;;;;;;;;4996338;28;20030;-82
2023/09/13 02:48:29;;;;;;;6.57;2.85;;;17.90;99.90;;;;;;5001061;28;20033;-81
2023/09/13 02:50:55;;;;;;;12.10;3.58;;;;;;;;;;4997251;28;20140;-81
2023/09/13 02:53:20;;;;;;;6.15;2.80;;;;;;;;;;4996851;28;20169;-81
2023/09/13 02:55:46;;;;;;;5.80;3.35;;;;;;;;;;4988099;28;20034;-81
2023/09/13 02:58:12;;;;;;;6.00;3.22;;;;;;;;;;4998003;28;20116;-81
2023/09/13 03:00:42;;;;;;;9.02;3.30;;;18.00;99.90;;;;;;4996959;28;20061;-81
2023/09/13 03:03:08;;;;;;;8.82;3.10;;;;;;;;;;4997747;28;20073;-83
2023/09/13 03:05:34;;;;;;;7.63;2.75;;;;;;;;;;5001028;28;20046;-82
2023/09/13 03:08:00;;;;;;;6.25;3.13;;;;;;;;;;5006495;28;20483;-83
2023/09/13 03:10:27;;;;;;;7.78;3.45;;;;;;;;;;5005886;28;20065;-81
2023/09/13 03:12:53;;;;;;;4.78;2.63;;;;;;;;;;5001560;28;20114;-81
2023/09/13 03:15:19;;;;;;;6.95;3.75;;;;;;;;;;5000012;28;20030;-81
2023/09/13 03:17:45;;;;;;;4.95;3.15;;;;;;;;;;4990840;28;21346;-81
2023/09/13 03:20:11;;;;;;;7.55;2.95;;;17.60;99.90;;;;;;5000698;28;20606;-80
2023/09/13 03:22:37;;;;;;;4.55;2.30;;;;;;;;;;5001064;28;20496;-81
2023/09/13 03:25:05;;;;;;;6.38;3.42;;;17.70;99.90;;;;;;4999995;28;20056;-81
2023/09/13 03:27:32;;;;;;;4.63;2.58;;;17.60;99.90;;;;;;5005202;28;20088;-82
2023/09/13 03:30:02;;;;;;;5.80;2.90;;;17.30;99.90;;;;;;5007227;28;20096;-81
2023/09/13 03:32:29;;;;;;;6.30;2.47;;;;;;;;;;5001035;28;20052;-81
2023/09/13 03:34:55;;;;;;;9.35;3.20;;;;;;;;;;5006513;28;20064;-81
2023/09/13 03:37:21;;;;;;;5.50;3.10;;;;;;;;;;5001106;28;20050;-81
2023/09/13 03:39:47;;;;;;;8.93;2.92;;;;;;;;;;5001528;28;20185;-80
2023/09/13 03:42:13;;;;;;;6.20;3.30;;;;;;;;;;4996541;28;20563;-82
2023/09/13 03:44:38;;;;;;;4.40;2.53;;;;;;;;;;5007509;28;20633;-83
2023/09/13 03:47:04;;;;;;;8.65;2.70;;;;;;;;;;5004007;28;20596;-81
2023/09/13 03:49:30;;;;;;;6.55;3.55;;;;;;;;;;5004754;28;20684;-81
2023/09/13 03:51:56;;;;;;;6.13;2.95;;;;;;;;;;4999887;28;20080;-82
2023/09/13 03:54:23;;;;;;;8.32;3.00;;;;;;;;;;5007116;28;20034;-84
2023/09/13 03:56:48;;;;;;;4.60;2.25;;;;;;;;;;5011418;28;20061;-82
2023/09/13 03:59:14;;;;;;;5.30;2.42;;;;;;;;;;5002736;28;20042;-84
2023/09/13 04:01:40;;;;;;;5.47;2.80;;;;;;;;;;5000601;28;20121;-81
2023/09/13 04:04:06;;;;;;;10.93;3.92;;;;;;;;;;5000298;28;20055;-83
2023/09/13 04:06:32;;;;;;;6.28;3.20;;;;;;;;;;5000045;28;20645;-82
2023/09/13 04:08:58;;;;;;;7.88;3.55;;;;;;;;;;5006066;28;20049;-81
2023/09/13 04:11:28;;;;;;;9.75;3.67;;;;;;;;;;5009403;28;20022;-82
2023/09/13 04:13:54;;;;;;;8.48;3.88;;;;;;;;;;5006144;28;20029;-80
2023/09/13 04:16:20;;;;;;;16.77;6.43;;;;;;;;;;4997070;28;22444;-82
2023/09/13 04:18:46;;;;;;;14.98;6.28;;;;;;;;;;5000819;28;20018;-82
2023/09/13 04:21:12;;;;;;;11.13;5.07;;;;;;;;;;5002997;28;20117;-82
2023/09/13 04:23:38;;;;;;;11.63;4.55;;;;;;;;;;5001303;28;21496;-82
2023/09/13 04:26:04;;;;;;;7.20;4.03;;;;;;;;;;5000210;28;20033;-81
2023/09/13 04:28:32;;;;;;;7.50;3.67;;;;;;;;;;4999091;28;20176;-82
2023/09/13 04:30:59;;;;;;;7.15;3.53;;;17.00;99.90;;;;;;4977965;28;20037;-82
2023/09/13 04:33:52;;;;;;;7.70;3.30;;;16.80;99.90;;;;;;4985816;28;20276;-83
2023/09/13 04:36:18;;;;;;;7.43;3.10;;;;;;;;;;4990599;28;20038;-82
2023/09/13 04:38:44;;;;;;;5.72;2.90;;;;;;;;;;4997683;28;20308;-82
2023/09/13 04:41:14;;;;;;;11.38;4.30;;;16.30;99.90;;;;;;4994272;28;21391;-83
2023/09/13 04:43:40;;;;;;;12.95;4.22;;;;;;;;;;5003845;28;20084;-84
2023/09/13 04:46:06;;;;;;;18.45;7.38;;;;;;;;;;4999309;28;20038;-82
2023/09/13 04:48:32;;;;;;;15.43;6.85;;;;;;;;;;4997252;28;20053;-83
2023/09/13 04:50:58;;;;;;;19.73;5.88;;;;;;;;;;4994414;28;20029;-84
2023/09/13 04:53:25;;;;;;;17.13;5.43;;;;;;;;;;4998657;28;20041;-83
2023/09/13 04:55:51;;;;;;;7.68;4.05;;;;;;;;;;5002569;28;20133;-84
2023/09/13 04:58:17;;;;;;;7.78;3.03;;;;;;;;;;4996528;28;20145;-83
2023/09/13 05:00:43;;;;;;;7.55;3.53;;;;;;;;;;4999666;28;20606;-82
2023/09/13 05:03:09;;;;;;;9.07;2.85;;;;;;;;;;5001906;28;20357;-83
2023/09/13 05:05:35;;;;;;;7.40;3.75;;;;;;;;;;5000859;28;20045;-83
2023/09/13 05:08:01;;;;;;;7.53;4.18;;;;;;;;;;5000963;28;20102;-84
2023/09/13 05:10:29;;;;;;;9.35;3.75;;;17.00;99.90;;;;;;5002018;28;20126;-83
2023/09/13 05:12:55;;;;;;;20.45;4.68;;;;;;;;;;5001947;28;20034;-82
2023/09/13 05:15:21;;;;;;;18.15;6.13;;;;;;;;;;5006082;28;20034;-84
2023/09/13 05:17:47;;;;;;;13.02;4.70;;;;;;;;;;5002807;28;20081;-82
2023/09/13 05:20:13;;;;;;;10.02;3.83;;;;;;;;;;4997236;28;20033;-84
2023/09/13 05:22:39;;;;;;;13.20;3.72;;;;;;;;;;4998302;28;20037;-83
2023/09/13 05:25:05;;;;;;;6.57;4.07;;;;;;;;;;5000637;28;20041;-82
2023/09/13 05:27:31;;;;;;;8.15;3.63;;;;;;;;;;5004531;28;20026;-83
2023/09/13 05:29:57;;;;;;;10.48;3.78;;;;;;;;;;5005358;28;20038;-84
2023/09/13 05:32:23;;;;;;;16.30;4.50;;;;;;;;;;4999907;28;20760;-83
2023/09/13 05:34:49;;;;;;;6.38;3.05;;;;;;;;;;4998739;28;20455;-84
2023/09/13 05:37:15;;;;;;;10.27;3.20;;;;;;;;;;4999613;28;20087;-84
2023/09/13 05:39:41;;;;;;;12.85;4.10;;;;;;;;;;4998514;28;20034;-84
2023/09/13 05:42:07;;;;;;;16.75;4.32;;;;;;;;;;4996749;28;20026;-83
2023/09/13 05:44:33;;;;;;;6.95;3.50;;;;;;;;;;5003329;28;20037;-84
2023/09/13 05:46:59;;;;;;;8.65;2.95;;;;;;;;;;5004042;28;20030;-84
2023/09/13 05:49:25;;;;;;;19.83;6.85;;;17.20;99.90;;;;;;5004829;28;20034;-84
2023/09/13 05:51:51;;;;;;;18.83;5.88;;;;;;;;;;5010113;28;20084;-84
2023/09/13 05:54:17;;;;;;;15.73;4.07;;;;;;;;;;5010476;28;20073;-84
2023/09/13 05:56:43;;;;;;;36.03;8.35;;;;;;;;;;5006818;28;21805;-83
2023/09/13 05:59:09;;;;;;;42.85;10.00;;;;;;;;;;4999919;28;20026;-84
2023/09/13 06:01:35;;;;;;;63.05;14.30;;;17.80;99.90;;;;;;4997517;28;20093;-83
2023/09/13 06:04:01;;;;;;;24.85;6.40;;;;;;;;;;5000716;28;20029;-83
2023/09/13 06:06:28;;;;;;;38.60;7.63;;;;;;;;;;5004104;28;20087;-84
2023/09/13 06:08:55;;;;;;;30.40;6.88;;;;;;;;;;5020588;28;20014;-83
2023/09/13 06:11:21;;;;;;;7.03;3.78;;;;;;;;;;5023118;28;20049;-82
2023/09/13 06:13:47;;;;;;;8.27;4.00;;;;;;;;;;5014028;28;20048;-85
2023/09/13 06:16:13;;;;;;;8.95;3.83;;;;;;;;;;5005997;28;20025;-85
2023/09/13 06:18:38;;;;;;;7.90;3.92;;;18.20;99.90;;;;;;5010921;28;20030;-85
2023/09/13 06:21:04;;;;;;;4.93;2.95;;;;;;;;;;5008879;28;20029;-85
2023/09/13 06:23:38;;;;;;;4.90;2.38;;;18.70;99.90;;;;;;5006034;28;20034;-85
2023/09/13 06:26:04;;;;;;;4.72;2.33;;;;;;;;;;5010892;28;20392;-85
2023/09/13 06:28:31;;;;;;;5.32;3.03;;;;;;;;;;5009265;28;20044;-85
2023/09/13 06:30:58;;;;;;;92.68;12.60;;;;;;;;;;5008502;28;20037;-84
2023/09/13 06:33:24;;;;;;;7.13;3.15;;;18.20;99.90;;;;;;5002885;28;20439;-85
2023/09/13 06:35:50;;;;;;;5.47;2.90;;;;;;;;;;5005948;28;20037;-85
2023/09/13 06:38:16;;;;;;;6.57;2.15;;;;;;;;;;5008574;28;20037;-85
2023/09/13 06:40:43;;;;;;;23.52;4.57;;;;;;;;;;5005827;28;20033;-84
2023/09/13 06:43:10;;;;;;;9.10;4.63;;;;;;;;;;5002418;28;20090;-84
2023/09/13 06:45:36;;;;;;;12.80;3.95;;;;;;;;;;5007151;28;20038;-85
2023/09/13 06:48:02;;;;;;;16.25;5.28;;;;;;;;;;5004974;28;20033;-86
2023/09/13 06:50:28;;;;;;;4.68;2.85;;;;;;;;;;5003693;28;20033;-85
2023/09/13 06:52:54;;;;;;;6.85;2.55;;;;;;;;;;5006686;28;20468;-85
2023/09/13 06:55:20;;;;;;;25.05;5.70;;;;;;;;;;5001820;28;20053;-86
2023/09/13 06:57:48;;;;;;;3.85;2.20;;;;;;;;;;5006877;28;20033;-85
2023/09/13 07:00:14;;;;;;;39.30;7.38;;;20.20;99.90;;;;;;5004689;28;20034;-85
2023/09/13 07:02:40;;;;;;;6.38;3.22;;;19.90;99.90;;;;;;5007567;28;20034;-85
2023/09/13 07:05:06;;;;;;;5.38;3.42;;;;;;;;;;5004536;28;20507;-86
2023/09/13 07:07:32;;;;;;;85.05;12.45;;;;;;;;;;5003281;28;20022;-86
2023/09/13 07:09:58;;;;;;;165.95;24.48;;;;;;;;;;5008386;28;20030;-85
2023/09/13 07:12:24;;;;;;;34.83;6.30;;;;;;;;;;5009918;28;20532;-85
2023/09/13 07:14:50;;;;;;;77.03;10.75;;;;;;;;;;5007340;28;20030;-85
2023/09/13 07:17:18;;;;;;;93.80;14.05;;;;;;;;;;5012048;28;20026;-85
2023/09/13 07:19:44;;;;;;;83.18;12.60;;;;;;;;;;4997180;28;20654;-84
2023/09/13 07:22:10;;;;;;;8.50;2.63;;;;;;;;;;5000888;28;20049;-85
2023/09/13 07:24:36;;;;;;;24.52;5.40;;;;;;;;;;5003975;28;20026;-85
2023/09/13 07:27:02;;;;;;;9.55;2.97;;;;;;;;;;5005945;28;20030;-86
2023/09/13 07:29:28;;;;;;;3.60;2.10;;;;;;;;;;5002676;28;20392;-85
2023/09/13 07:31:54;;;;;;;5.07;2.17;;;;;;;;;;5000641;28;20026;-86
2023/09/13 07:34:20;;;;;;;61.88;9.07;;;;;;;;;;5007467;28;20041;-84
2023/09/13 07:36:46;;;;;;;12.70;1.85;;;;;;;;;;5009933;28;20030;-85
2023/09/13 07:39:12;;;;;;;3.30;1.90;;;;;;;;;;5010108;28;20065;-84
2023/09/13 07:41:38;;;;;;;4.25;2.10;;;;;;;;;;5019403;28;20033;-84
2023/09/13 07:44:04;;;;;;;3.97;2.10;;;;;;;;;;5002503;28;20022;-86
2023/09/13 07:46:30;;;;;;;6.82;2.05;;;21.20;99.90;;;;;;5006874;28;20057;-85
2023/09/13 07:48:56;;;;;;;6.03;1.85;;;;;;;;;;5007484;28;20084;-85
2023/09/13 07:51:22;;;;;;;4.43;2.03;;;;;;;;;;5007906;28;20034;-85
2023/09/13 07:53:48;;;;;;;99.53;13.80;;;;;;;;;;5005073;28;20124;-85
2023/09/13 07:56:14;;;;;;;24.92;5.47;;;;;;;;;;5004146;28;20026;-85
2023/09/13 07:58:41;;;;;;;9.38;2.78;;;;;;;;;;5005123;28;20041;-86
2023/09/13 08:01:07;;;;;;;12.95;3.95;;;;;;;;;;5002153;28;20019;-87
2023/09/13 08:03:33;;;;;;;5.93;1.70;;;22.10;99.90;;;;;;5005661;28;20033;-85
2023/09/13 08:06:00;;;;;;;5.28;1.90;;;;;;;;;;5002031;28;20037;-85
2023/09/13 08:08:26;;;;;;;18.10;4.13;;;;;;;;;;5005536;28;20034;-84
2023/09/13 08:10:54;;;;;;;55.10;9.10;;;21.70;99.90;;;;;;5005466;28;20038;-85
2023/09/13 08:13:21;;;;;;;4.90;2.30;;;22.00;99.90;;;;;;5001361;28;20034;-85
2023/09/13 08:15:47;;;;;;;7.30;1.95;;;;;;;;;;5003031;28;20034;-86
2023/09/13 08:18:13;;;;;;;3.97;1.65;;;;;;;;;;5003656;28;20029;-85
2023/09/13 08:20:41;;;;;;;40.63;6.07;;;21.80;99.90;;;;;;5007637;28;20037;-87
2023/09/13 08:23:07;;;;;;;2.75;1.48;;;;;;;;;;5004766;28;20481;-86
2023/09/13 08:25:33;;;;;;;4.70;2.03;;;;;;;;;;5006951;28;20042;-86
2023/09/13 08:27:59;;;;;;;3.35;1.33;;;;;;;;;;4996124;28;20022;-89
2023/09/13 08:30:25;;;;;;;2.45;1.50;;;;;;;;;;5003423;28;20041;-86
2023/09/13 08:32:51;;;;;;;3.83;1.13;;;;;;;;;;5003719;28;20069;-84
2023/09/13 08:35:17;;;;;;;3.20;1.58;;;;;;;;;;5007543;28;20113;-83
2023/09/13 08:37:43;;;;;;;2.97;1.42;;;;;;;;;;5009090;28;20114;-85
2023/09/13 08:40:10;;;;;;;3.38;1.52;;;23.20;99.90;;;;;;5008337;28;20677;-85
2023/09/13 08:42:37;;;;;;;15.13;4.80;;;22.80;99.90;;;;;;5011348;28;20029;-84
2023/09/13 08:45:03;;;;;;;3.35;1.77;;;;;;;;;;5004175;28;20033;-87
2023/09/13 08:47:31;;;;;;;4.57;2.08;;;;;;;;;;5004086;28;20033;-84
2023/09/13 08:50:00;;;;;;;4.80;2.03;;;23.30;99.90;;;;;;5003152;28;20090;-85
2023/09/13 08:52:27;;;;;;;7.50;1.58;;;23.30;99.90;;;;;;5003682;28;20173;-81
2023/09/13 08:54:56;;;;;;;15.07;3.75;;;23.50;99.90;;;;;;4999556;28;20030;-82
2023/09/13 08:57:24;;;;;;;4.97;1.60;;;23.70;99.90;;;;;;5003848;28;20112;-83
2023/09/13 08:59:50;;;;;;;4.32;1.83;;;24.30;99.90;;;;;;5003941;28;20067;-84
2023/09/13 09:02:18;;;;;;;5.93;1.90;;;25.20;99.90;;;;;;5003228;28;20018;-85
2023/09/13 09:04:47;;;;;;;1.77;1.05;;;24.80;99.90;;;;;;4994763;28;20034;-83
2023/09/13 09:07:14;;;;;;;22.90;6.03;;;25.20;99.90;;;;;;4996784;28;20029;-83
2023/09/13 09:09:40;;;;;;;4.15;1.65;;;;;;;;;;5001300;28;20027;-84
2023/09/13 09:12:07;;;;;;;33.08;9.27;;;;;;;;;;4997603;28;20116;-87
2023/09/13 09:14:34;;;;;;;2.20;1.38;;;23.70;99.90;;;;;;4992884;28;20023;-81
2023/09/13 09:17:02;;;;;;;3.05;1.27;;;23.10;99.90;;;;;;4997063;28;20032;-83
2023/09/13 09:19:29;;;;;;;4.15;1.95;;;23.20;99.90;;;;;;4997608;28;20042;-86
2023/09/13 09:21:58;;;;;;;5.45;1.58;;;22.30;99.90;;;;;;5000574;28;20050;-83
2023/09/13 09:24:23;;;;;;;2.00;1.23;;;;;;;;;;4998314;28;20032;-83
2023/09/13 09:26:50;;;;;;;4.25;1.55;;;;;;;;;;5003230;28;20109;-87
2023/09/13 09:29:18;;;;;;;2.20;1.15;;;21.90;99.90;;;;;;4994167;28;20272;-86
2023/09/13 09:31:44;;;;;;;34.00;5.80;;;22.00;99.90;;;;;;4998526;28;20045;-85
2023/09/13 09:34:10;;;;;;;811.92;138.60;;;22.20;99.90;;;;;;4995124;28;20057;-85
2023/09/13 09:36:44;;;;;;;146.63;26.75;;;21.80;99.90;;;;;;5004734;28;20045;-84
2023/09/13 09:39:10;;;;;;;28.88;3.72;;;21.90;99.90;;;;;;5003319;28;20512;-83
2023/09/13 09:41:37;;;;;;;23.63;3.42;;;21.80;99.90;;;;;;4998604;28;20081;-83
2023/09/13 09:44:04;;;;;;;10.15;3.00;;;22.50;99.90;;;;;;4998197;28;20040;-84
2023/09/13 09:46:31;;;;;;;5.53;1.70;;;;;;;;;;4993274;28;20092;-83
2023/09/13 09:48:57;;;;;;;15.85;2.78;;;;;;;;;;4997381;28;20489;-82
2023/09/13 09:51:23;;;;;;;14.32;1.83;;;;;;;;;;5000315;28;20044;-84
2023/09/13 09:53:49;;;;;;;5.80;1.77;;;;;;;;;;4998659;28;20121;-85
2023/09/13 09:56:15;;;;;;;5.70;2.35;;;23.80;99.90;;;;;;4999001;28;20027;-82
2023/09/13 09:58:42;;;;;;;3.97;1.80;;;;;;;;;;4994932;28;20066;-84
2023/09/13 10:01:08;;;;;;;5.60;2.25;;;;;;;;;;4998936;28;20064;-86
2023/09/13 10:03:34;;;;;;;6.03;1.90;;;24.30;99.90;;;;;;4999881;28;20053;-83
2023/09/13 10:06:10;;;;;;;4.00;1.83;;;24.00;99.90;;;;;;4999385;28;20030;-85
2023/09/13 10:08:48;;;;;;;15.40;3.97;;;23.90;99.90;;;;;;4998169;28;20518;-85
2023/09/13 10:11:21;;;;;;;3.97;1.92;;;23.80;99.90;;;;;;4994182;28;20030;-85
2023/09/13 10:13:49;;;;;;;4.70;1.65;;;;;;;;;;4997888;28;20129;-84
2023/09/13 10:16:18;;;;;;;4.35;1.63;;;23.70;99.90;;;;;;5003369;28;20029;-85
2023/09/13 10:18:51;;;;;;;3.58;1.98;;;23.50;99.90;;;;;;5003445;28;20105;-81
2023/09/13 10:21:20;;;;;;;3.22;1.90;;;24.00;99.90;;;;;;5004390;28;20595;-85
2023/09/13 10:23:46;;;;;;;2.60;1.40;;;;;;;;;;4999893;28;20032;-83
2023/09/13 10:26:16;;;;;;;4.63;1.80;;;;;;;;;;5010546;28;20061;-85
2023/09/13 10:28:45;;;;;;;8.60;2.55;;;23.80;99.90;;;;;;5004285;28;20118;-85
2023/09/13 10:31:17;;;;;;;10.57;2.63;;;24.40;99.90;;;;;;5004056;28;20531;-87
2023/09/13 10:33:46;;;;;;;4.63;1.80;;;24.20;99.90;;;;;;4993865;28;20037;-87
2023/09/13 10:36:21;;;;;;;3.00;1.70;;;24.00;99.90;;;;;;5000499;28;20507;-89
2023/09/13 10:38:58;;;;;;;3.88;1.83;;;25.00;99.90;;;;;;4997160;28;20033;-86
2023/09/13 10:41:28;;;;;;;3.90;2.03;;;24.70;99.90;;;;;;5000819;28;20033;-88
2023/09/13 10:43:55;;;;;;;3.10;1.80;;;23.90;99.90;;;;;;4999967;28;20057;-82
2023/09/13 10:46:21;;;;;;;3.13;1.38;;;24.20;99.90;;;;;;4997366;28;20124;-83
2023/09/13 10:48:48;;;;;;;2.92;1.63;;;;;;;;;;5003486;28;20049;-85
2023/09/13 10:51:15;;;;;;;4.55;1.77;;;24.40;99.90;;;;;;4997379;28;20046;-87
2023/09/13 10:53:41;;;;;;;6.28;2.20;;;;;;;;;;5003563;28;20121;-85
2023/09/13 10:56:08;;;;;;;3.90;1.48;;;25.10;99.90;;;;;;5001307;28;20026;-88
2023/09/13 10:58:34;;;;;;;2.83;1.77;;;;;;;;;;4995409;28;20048;-85
2023/09/13 11:01:00;;;;;;;2.65;1.45;;;;;;;;;;4992794;28;20033;-87
2023/09/13 11:03:26;;;;;;;4.57;1.92;;;;;;;;;;4991229;28;20030;-85
2023/09/13 11:05:57;;;;;;;3.47;2.00;;;26.20;99.90;;;;;;4991756;28;20030;-82
2023/09/13 11:08:30;;;;;;;5.20;1.98;;;26.20;99.90;;;;;;4988179;28;20034;-86
2023/09/13 11:11:12;;;;;;;4.97;2.28;;;26.10;99.90;;;;;;4988523;28;20038;-84
2023/09/13 11:13:38;;;;;;;2.53;1.42;;;;;;;;;;4999050;28;20034;-86
2023/09/13 11:16:04;;;;;;;4.20;1.60;;;;;;;;;;4988688;28;20028;-90
2023/09/13 11:18:30;;;;;;;3.72;1.90;;;26.40;99.90;;;;;;4996454;28;20493;-84
2023/09/13 11:20:56;;;;;;;2.17;1.52;;;;;;;;;;4993386;28;20034;-82
2023/09/13 11:23:23;;;;;;;2.78;1.65;;;;;;;;;;4997973;28;20094;-83
2023/09/13 11:25:54;;;;;;;6.80;1.65;;;26.00;99.90;;;;;;4999421;28;20029;-83
2023/09/13 11:28:43;;;;;;;3.42;1.92;;;26.00;99.90;;;;;;4997563;28;20070;-83
2023/09/13 11:31:10;;;;;;;4.75;1.60;;;25.90;99.90;;;;;;5000311;28;20038;-83
2023/09/13 11:33:57;;;;;;;2.63;1.52;;;25.40;99.90;;;;;;4999596;28;20453;-85
2023/09/13 11:36:24;;;;;;;4.47;1.58;;;25.60;99.90;;;;;;5001509;28;21729;-83
2023/09/13 11:38:52;;;;;;;6.50;1.90;;;25.20;99.90;;;;;;4993981;28;20026;-87
2023/09/13 11:41:18;;;;;;;4.57;1.65;;;;;;;;;;4989641;28;20034;-87
2023/09/13 11:43:44;;;;;;;2.97;1.48;;;;;;;;;;4997069;28;20045;-86
2023/09/13 11:46:11;;;;;;;4.25;1.88;;;;;;;;;;4994223;28;20085;-85
2023/09/13 11:48:41;;;;;;;3.30;1.60;;;;;;;;;;5002250;28;20646;-83
2023/09/13 11:51:14;;;;;;;4.85;1.88;;;24.60;99.90;;;;;;4997950;28;20424;-89
2023/09/13 11:53:40;;;;;;;3.75;1.65;;;25.00;99.90;;;;;;5001352;28;20049;-89
2023/09/13 11:56:07;;;;;;;4.00;2.38;;;;;;;;;;4999841;28;20485;-84
2023/09/13 11:58:37;;;;;;;3.13;1.38;;;24.40;99.90;;;;;;5001640;28;20026;-83
2023/09/13 12:01:07;;;;;;;1.95;1.23;;;24.80;99.90;;;;;;5007020;28;20041;-86
2023/09/13 12:03:39;;;;;;;2.22;1.52;;;25.20;99.90;;;;;;5006994;28;20034;-88
2023/09/13 12:06:05;;;;;;;6.22;1.88;;;;;;;;;;5003476;28;20030;-83
2023/09/13 12:08:34;;;;;;;2.85;1.65;;;24.50;99.90;;;;;;5003242;28;20057;-81
2023/09/13 12:11:03;;;;;;;3.88;2.10;;;24.70;99.90;;;;;;5000731;28;20034;-82
2023/09/13 12:13:52;;;;;;;3.03;1.67;;;25.00;99.90;;;;;;5012133;28;20092;-83
2023/09/13 12:16:18;;;;;;;2.75;1.63;;;25.80;99.90;;;;;;4990752;28;20070;-87
2023/09/13 12:18:44;;;;;;;3.92;2.13;;;;;;;;;;4993763;28;20033;-85
2023/09/13 12:21:12;;;;;;;4.40;1.67;;;25.70;99.90;;;;;;4990269;28;20144;-85
2023/09/13 12:23:42;;;;;;;3.40;1.73;;;25.90;99.90;;;;;;4995307;28;20034;-84
2023/09/13 12:26:10;;;;;;;4.35;1.30;;;25.90;99.90;;;;;;4997638;28;20030;-83
2023/09/13 12:28:39;;;;;;;5.28;1.83;;;25.80;99.90;;;;;;4999515;28;20027;-83
2023/09/13 12:31:09;;;;;;;2.70;1.52;;;26.00;99.90;;;;;;4998086;28;20034;-86
2023/09/13 12:33:36;;;;;;;5.00;2.15;;;26.10;99.90;;;;;;4995278;28;20112;-86
2023/09/13 12:36:04;;;;;;;2.60;1.60;;;26.10;99.90;;;;;;4995653;28;20029;-84
2023/09/13 12:38:48;;;;;;;3.00;1.60;;;26.20;99.90;;;;;;4999198;28;20033;-86
2023/09/13 12:41:19;;;;;;;2.20;1.20;;;25.90;99.90;;;;;;4989093;28;20030;-85
2023/09/13 12:43:48;;;;;;;2.53;1.50;;;26.20;99.90;;;;;;4989693;28;20257;-86
2023/09/13 12:46:18;;;;;;;2.75;1.58;;;26.40;99.90;;;;;;4983951;28;20030;-86
2023/09/13 12:48:44;;;;;;;5.50;2.78;;;26.20;99.90;;;;;;4996519;28;20033;-84
2023/09/13 12:51:12;;;;;;;5.95;1.83;;;26.00;99.90;;;;;;4995153;28;20033;-82
2023/09/13 12:53:38;;;;;;;5.13;1.88;;;;;;;;;;4994370;28;20117;-83
2023/09/13 12:56:04;;;;;;;2.40;1.00;;;;;;;;;;4993995;28;20476;-87
2023/09/13 12:58:31;;;;;;;2.33;1.10;;;;;;;;;;4994593;28;20034;-83
2023/09/13 13:00:59;;;;;;;3.75;1.63;;;25.90;99.90;;;;;;4999441;28;20037;-85
2023/09/13 13:03:31;;;;;;;2.85;1.45;;;25.50;99.90;;;;;;5000370;28;20041;-85
2023/09/13 13:06:01;;;;;;;5.22;1.92;;;25.40;99.90;;;;;;4988027;28;20030;-85
2023/09/13 13:08:34;;;;;;;2.45;1.40;;;25.80;99.90;;;;;;4994791;28;20581;-85
2023/09/13 13:11:03;;;;;;;5.07;1.70;;;25.90;99.90;;;;;;4997342;28;20076;-83
2023/09/13 13:13:36;;;;;;;4.35;1.42;;;;;;;;;;4998894;28;20049;-83
2023/09/13 13:16:13;;;;;;;3.40;1.65;;;25.80;99.90;;;;;;4994495;28;20080;-83
2023/09/13 13:18:50;;;;;;;2.35;1.40;;;25.10;99.90;;;;;;4993414;28;20033;-82
2023/09/13 13:21:17;;;;;;;4.60;1.60;;;25.40;99.90;;;;;;4988142;28;20038;-83
2023/09/13 13:23:48;;;;;;;2.65;1.58;;;25.10;99.90;;;;;;4993111;28;20034;-83
2023/09/13 13:26:15;;;;;;;3.42;1.52;;;24.90;99.90;;;;;;4996845;28;20417;-82
2023/09/13 13:28:41;;;;;;;9.68;1.75;;;;;;;;;;4995977;28;20048;-84
2023/09/13 13:31:07;;;;;;;4.80;1.42;;;24.20;99.90;;;;;;4990860;28;20030;-83
2023/09/13 13:33:37;;;;;;;1.92;1.15;;;23.40;99.90;;;;;;4994844;28;20022;-86
2023/09/13 13:36:03;;;;;;;2.53;1.40;;;;;;;;;;4997928;28;20108;-84
2023/09/13 13:38:29;;;;;;;3.45;1.67;;;22.70;99.90;;;;;;4999694;28;20022;-82
2023/09/13 13:41:08;;;;;;;1.73;1.20;;;22.50;99.90;;;;;;4994613;28;20041;-82
2023/09/13 13:43:35;;;;;;;3.30;1.65;;;22.20;99.90;;;;;;4994759;28;20137;-84
2023/09/13 13:46:02;;;;;;;5.45;1.67;;;22.20;99.90;;;;;;4996876;28;20030;-83
2023/09/13 13:48:29;;;;;;;3.67;1.67;;;22.00;99.90;;;;;;4990571;28;20032;-83
2023/09/13 13:50:55;;;;;;;4.43;1.48;;;;;;;;;;4996344;28;20393;-81
2023/09/13 13:53:26;;;;;;;3.95;1.50;;;;;;;;;;4993837;28;20048;-80
2023/09/13 13:55:52;;;;;;;3.25;1.15;;;;;;;;;;4988987;28;20033;-83